CSZ4602 ZSCN-ZBAA
Flight info
| Callsign | CSZ4602 |
|---|---|
| Flight time | 1h 52m |
| Altitude | 37100 |
| Route | LAP91D LAPEN W105 XSH V110 HOK A461 ZHO B208 OBMEP W56 DUGEB DUGEB5D |
| Aircraft | A320/M-SDE3FGHIRWY/LB1 |
Departure
| Time | 2026-04-20 05:27 |
|---|---|
| Airport | Nanchang Changbei International Airport (ZSCN) |
Arrival
| Time | 2026-04-20 07:20 |
|---|---|
| Airport | Beijing Capital International Airport (ZBAA) |
| Time | Latitude | Longitude | Altitude | Speed | Heading |
|---|---|---|---|---|---|
| 2026-04-20 04:55 | 28.86596 | 115.90972 | 152 ft | 0 kts | 86° |
| 2026-04-20 05:11 | 28.86595 | 115.90967 | 151 ft | 2 kts | 85° |
| 2026-04-20 05:11 | 28.86594 | 115.90950 | 151 ft | 2 kts | 87° |
| 2026-04-20 05:12 | 28.86594 | 115.90939 | 151 ft | 2 kts | 86° |
| 2026-04-20 05:12 | 28.86591 | 115.90922 | 151 ft | 2 kts | 71° |
| 2026-04-20 05:12 | 28.86585 | 115.90906 | 151 ft | 2 kts | 59° |
| 2026-04-20 05:12 | 28.86577 | 115.90893 | 151 ft | 2 kts | 47° |
| 2026-04-20 05:13 | 28.86566 | 115.90881 | 151 ft | 2 kts | 34° |
| 2026-04-20 05:13 | 28.86553 | 115.90873 | 151 ft | 2 kts | 22° |
| 2026-04-20 05:13 | 28.86538 | 115.90868 | 151 ft | 2 kts | 9° |
| 2026-04-20 05:13 | 28.86525 | 115.90867 | 151 ft | 0 kts | 359° |
| 2026-04-20 05:14 | 28.86519 | 115.90868 | 151 ft | 0 kts | 356° |
| 2026-04-20 05:15 | 28.86521 | 115.90867 | 151 ft | 0 kts | 356° |
| 2026-04-20 05:16 | 28.86528 | 115.90867 | 151 ft | 1 kts | 356° |
| 2026-04-20 05:16 | 28.86541 | 115.90865 | 151 ft | 2 kts | 356° |
| 2026-04-20 05:16 | 28.86558 | 115.90865 | 151 ft | 2 kts | 353° |
| 2026-04-20 05:16 | 28.86581 | 115.90861 | 151 ft | 3 kts | 355° |
| 2026-04-20 05:17 | 28.86608 | 115.90860 | 151 ft | 4 kts | 360° |
| 2026-04-20 05:17 | 28.86640 | 115.90852 | 151 ft | 4 kts | 331° |
| 2026-04-20 05:17 | 28.86664 | 115.90823 | 151 ft | 5 kts | 302° |
| 2026-04-20 05:17 | 28.86682 | 115.90784 | 151 ft | 6 kts | 295° |
| 2026-04-20 05:18 | 28.86699 | 115.90736 | 151 ft | 6 kts | 291° |
| 2026-04-20 05:18 | 28.86705 | 115.90681 | 151 ft | 7 kts | 243° |
| 2026-04-20 05:18 | 28.86660 | 115.90647 | 151 ft | 8 kts | 207° |
| 2026-04-20 05:18 | 28.86604 | 115.90618 | 151 ft | 9 kts | 202° |
| 2026-04-20 05:19 | 28.86540 | 115.90588 | 151 ft | 10 kts | 202° |
| 2026-04-20 05:19 | 28.86470 | 115.90554 | 151 ft | 11 kts | 203° |
| 2026-04-20 05:19 | 28.86395 | 115.90518 | 151 ft | 12 kts | 204° |
| 2026-04-20 05:19 | 28.86316 | 115.90479 | 151 ft | 12 kts | 202° |
| 2026-04-20 05:20 | 28.86233 | 115.90439 | 151 ft | 13 kts | 202° |
| 2026-04-20 05:20 | 28.86148 | 115.90398 | 151 ft | 13 kts | 203° |
| 2026-04-20 05:20 | 28.86060 | 115.90355 | 151 ft | 13 kts | 206° |
| 2026-04-20 05:20 | 28.86029 | 115.90260 | 151 ft | 13 kts | 237° |
| 2026-04-20 05:21 | 28.85945 | 115.90215 | 151 ft | 13 kts | 201° |
| 2026-04-20 05:21 | 28.85861 | 115.90164 | 151 ft | 13 kts | 203° |
| 2026-04-20 05:21 | 28.85771 | 115.90121 | 151 ft | 14 kts | 203° |
| 2026-04-20 05:21 | 28.85679 | 115.90076 | 151 ft | 14 kts | 203° |
| 2026-04-20 05:22 | 28.85587 | 115.90031 | 151 ft | 14 kts | 203° |
| 2026-04-20 05:22 | 28.85492 | 115.89985 | 151 ft | 14 kts | 202° |
| 2026-04-20 05:22 | 28.85396 | 115.89938 | 151 ft | 15 kts | 203° |
| 2026-04-20 05:22 | 28.85298 | 115.89891 | 151 ft | 15 kts | 202° |
| 2026-04-20 05:23 | 28.85200 | 115.89844 | 151 ft | 15 kts | 202° |
| 2026-04-20 05:23 | 28.85125 | 115.89772 | 151 ft | 14 kts | 274° |
| 2026-04-20 05:23 | 28.85140 | 115.89722 | 151 ft | 0 kts | 294° |
| 2026-04-20 05:25 | 28.85142 | 115.89716 | 151 ft | 1 kts | 294° |
| 2026-04-20 05:25 | 28.85147 | 115.89704 | 151 ft | 2 kts | 294° |
| 2026-04-20 05:25 | 28.85154 | 115.89686 | 151 ft | 2 kts | 294° |
| 2026-04-20 05:25 | 28.85163 | 115.89662 | 151 ft | 3 kts | 297° |
| 2026-04-20 05:26 | 28.85183 | 115.89643 | 151 ft | 4 kts | 344° |
| 2026-04-20 05:26 | 28.85214 | 115.89648 | 151 ft | 5 kts | 15° |
| 2026-04-20 05:26 | 28.85249 | 115.89661 | 151 ft | 6 kts | 21° |
| 2026-04-20 05:26 | 28.85362 | 115.89715 | 151 ft | 31 kts | 23° |
| 2026-04-20 05:27 | 28.85741 | 115.89896 | 152 ft | 93 kts | 23° |
| 2026-04-20 05:27 | 28.86536 | 115.90283 | 153 ft | 152 kts | 23° |
| 2026-04-20 05:27 | 28.87496 | 115.90740 | 841 ft | 144 kts | 23° |
| 2026-04-20 05:27 | 28.88398 | 115.91179 | 1364 ft | 153 kts | 24° |
| 2026-04-20 05:28 | 28.89478 | 115.91708 | 1570 ft | 184 kts | 24° |
| 2026-04-20 05:28 | 28.90743 | 115.92332 | 1779 ft | 217 kts | 24° |
| 2026-04-20 05:28 | 28.92242 | 115.93066 | 1990 ft | 243 kts | 23° |
| 2026-04-20 05:28 | 28.93819 | 115.93834 | 2216 ft | 247 kts | 23° |
| 2026-04-20 05:29 | 28.95412 | 115.94607 | 2443 ft | 249 kts | 23° |
| 2026-04-20 05:29 | 28.96996 | 115.95376 | 2667 ft | 250 kts | 23° |
| 2026-04-20 05:29 | 28.98596 | 115.96152 | 2892 ft | 251 kts | 23° |
| 2026-04-20 05:29 | 29.00196 | 115.96928 | 3116 ft | 252 kts | 23° |
| 2026-04-20 05:30 | 29.01822 | 115.97721 | 3344 ft | 253 kts | 23° |
| 2026-04-20 05:30 | 29.03430 | 115.98508 | 3568 ft | 254 kts | 23° |
| 2026-04-20 05:30 | 29.05066 | 115.99307 | 3795 ft | 255 kts | 23° |
| 2026-04-20 05:30 | 29.06704 | 116.00106 | 4049 ft | 259 kts | 23° |
| 2026-04-20 05:31 | 29.08367 | 116.00919 | 4804 ft | 265 kts | 23° |
| 2026-04-20 05:31 | 29.10039 | 116.01734 | 5799 ft | 263 kts | 23° |
| 2026-04-20 05:31 | 29.11733 | 116.02558 | 6645 ft | 267 kts | 23° |
| 2026-04-20 05:31 | 29.13445 | 116.03389 | 7465 ft | 272 kts | 23° |
| 2026-04-20 05:32 | 29.15177 | 116.04233 | 8278 ft | 275 kts | 23° |
| 2026-04-20 05:32 | 29.16913 | 116.05077 | 9056 ft | 279 kts | 22° |
| 2026-04-20 05:32 | 29.18791 | 116.05554 | 9783 ft | 285 kts | 0° |
| 2026-04-20 05:32 | 29.20760 | 116.05109 | 10418 ft | 295 kts | 337° |
| 2026-04-20 05:33 | 29.22462 | 116.03722 | 10757 ft | 315 kts | 312° |
| 2026-04-20 05:33 | 29.23598 | 116.01508 | 11152 ft | 332 kts | 294° |
| 2026-04-20 05:33 | 29.24496 | 115.99043 | 11826 ft | 338 kts | 293° |
| 2026-04-20 05:33 | 29.25393 | 115.96540 | 12544 ft | 341 kts | 293° |
| 2026-04-20 05:34 | 29.26308 | 115.94025 | 13258 ft | 344 kts | 294° |
| 2026-04-20 05:34 | 29.27233 | 115.91514 | 13956 ft | 347 kts | 294° |
| 2026-04-20 05:34 | 29.29140 | 115.86394 | 15326 ft | 353 kts | 295° |
| 2026-04-20 05:35 | 29.30103 | 115.83816 | 15988 ft | 355 kts | 295° |
| 2026-04-20 05:35 | 29.31069 | 115.81240 | 16632 ft | 358 kts | 295° |
| 2026-04-20 05:35 | 29.32058 | 115.78620 | 17268 ft | 360 kts | 296° |
| 2026-04-20 05:35 | 29.33393 | 115.76182 | 17849 ft | 361 kts | 314° |
| 2026-04-20 05:36 | 29.35306 | 115.74397 | 18447 ft | 360 kts | 332° |
| 2026-04-20 05:36 | 29.37577 | 115.73253 | 19064 ft | 361 kts | 340° |
| 2026-04-20 05:36 | 29.39927 | 115.72247 | 19635 ft | 363 kts | 340° |
| 2026-04-20 05:36 | 29.42297 | 115.71242 | 20185 ft | 366 kts | 340° |
| 2026-04-20 05:37 | 29.44681 | 115.70222 | 20731 ft | 369 kts | 340° |
| 2026-04-20 05:37 | 29.47080 | 115.69184 | 21280 ft | 371 kts | 339° |
| 2026-04-20 05:37 | 29.49489 | 115.68134 | 21815 ft | 374 kts | 339° |
| 2026-04-20 05:37 | 29.51940 | 115.67062 | 22338 ft | 376 kts | 339° |
| 2026-04-20 05:38 | 29.54367 | 115.65998 | 22840 ft | 379 kts | 339° |
| 2026-04-20 05:38 | 29.56851 | 115.64909 | 23341 ft | 382 kts | 339° |
| 2026-04-20 05:38 | 29.59333 | 115.63821 | 23830 ft | 385 kts | 338° |
| 2026-04-20 05:38 | 29.61833 | 115.62729 | 24301 ft | 387 kts | 338° |
| 2026-04-20 05:39 | 29.64334 | 115.61639 | 24757 ft | 390 kts | 338° |
| 2026-04-20 05:39 | 29.66898 | 115.60519 | 25206 ft | 393 kts | 338° |
| 2026-04-20 05:39 | 29.69447 | 115.59402 | 25634 ft | 396 kts | 338° |
| 2026-04-20 05:39 | 29.72023 | 115.58271 | 26058 ft | 398 kts | 338° |
| 2026-04-20 05:40 | 29.74593 | 115.57143 | 26458 ft | 401 kts | 338° |
| 2026-04-20 05:40 | 29.77214 | 115.55991 | 26856 ft | 404 kts | 338° |
| 2026-04-20 05:40 | 29.79840 | 115.54839 | 27232 ft | 407 kts | 338° |
| 2026-04-20 05:40 | 29.82472 | 115.53690 | 27586 ft | 409 kts | 337° |
| 2026-04-20 05:41 | 29.85133 | 115.52526 | 27937 ft | 412 kts | 337° |
| 2026-04-20 05:41 | 29.87834 | 115.51342 | 28278 ft | 414 kts | 337° |
| 2026-04-20 05:41 | 29.90502 | 115.50171 | 28592 ft | 417 kts | 337° |
| 2026-04-20 05:41 | 29.93239 | 115.48967 | 28899 ft | 420 kts | 337° |
| 2026-04-20 05:42 | 29.95938 | 115.47778 | 29188 ft | 422 kts | 337° |
| 2026-04-20 05:42 | 29.98694 | 115.46562 | 29474 ft | 424 kts | 337° |
| 2026-04-20 05:42 | 30.01482 | 115.45332 | 29745 ft | 427 kts | 336° |
| 2026-04-20 05:42 | 30.04221 | 115.44122 | 30006 ft | 429 kts | 336° |
| 2026-04-20 05:43 | 30.07035 | 115.42878 | 30286 ft | 430 kts | 336° |
| 2026-04-20 05:43 | 30.09812 | 115.41650 | 30619 ft | 430 kts | 336° |
| 2026-04-20 05:43 | 30.12584 | 115.40428 | 30949 ft | 429 kts | 336° |
| 2026-04-20 05:43 | 30.15401 | 115.39188 | 31257 ft | 429 kts | 336° |
| 2026-04-20 05:44 | 30.18146 | 115.37978 | 31545 ft | 429 kts | 336° |
| 2026-04-20 05:44 | 30.20943 | 115.36739 | 31830 ft | 430 kts | 336° |
| 2026-04-20 05:44 | 30.23715 | 115.35507 | 32109 ft | 430 kts | 336° |
| 2026-04-20 05:44 | 30.26507 | 115.34262 | 32386 ft | 430 kts | 335° |
| 2026-04-20 05:45 | 30.29262 | 115.33021 | 32662 ft | 430 kts | 335° |
| 2026-04-20 05:45 | 30.32063 | 115.31763 | 32935 ft | 430 kts | 335° |
| 2026-04-20 05:45 | 30.34856 | 115.30516 | 33198 ft | 430 kts | 335° |
| 2026-04-20 05:45 | 30.37622 | 115.29246 | 33450 ft | 429 kts | 333° |
| 2026-04-20 05:46 | 30.40299 | 115.27835 | 33691 ft | 428 kts | 330° |
| 2026-04-20 05:46 | 30.42950 | 115.26219 | 33938 ft | 427 kts | 327° |
| 2026-04-20 05:46 | 30.45476 | 115.24455 | 34179 ft | 425 kts | 323° |
| 2026-04-20 05:46 | 30.47925 | 115.22511 | 34427 ft | 424 kts | 320° |
| 2026-04-20 05:47 | 30.50248 | 115.20444 | 34673 ft | 422 kts | 318° |
| 2026-04-20 05:47 | 30.52536 | 115.18318 | 34913 ft | 422 kts | 317° |
| 2026-04-20 05:47 | 30.54793 | 115.16206 | 35150 ft | 421 kts | 317° |
| 2026-04-20 05:47 | 30.57086 | 115.14059 | 35386 ft | 421 kts | 318° |
| 2026-04-20 05:48 | 30.59375 | 115.11919 | 35621 ft | 420 kts | 318° |
| 2026-04-20 05:48 | 30.61651 | 115.09791 | 35846 ft | 419 kts | 318° |
| 2026-04-20 05:48 | 30.63897 | 115.07691 | 36060 ft | 418 kts | 318° |
| 2026-04-20 05:48 | 30.66204 | 115.05536 | 36243 ft | 419 kts | 318° |
| 2026-04-20 05:49 | 30.68467 | 115.03419 | 36394 ft | 419 kts | 318° |
| 2026-04-20 05:49 | 30.70749 | 115.01284 | 36541 ft | 420 kts | 318° |
| 2026-04-20 05:49 | 30.72993 | 114.99158 | 36664 ft | 421 kts | 320° |
| 2026-04-20 05:49 | 30.75271 | 114.97011 | 36744 ft | 423 kts | 321° |
| 2026-04-20 05:50 | 30.79892 | 114.92703 | 36880 ft | 428 kts | 321° |
| 2026-04-20 05:50 | 30.84575 | 114.88323 | 37023 ft | 432 kts | 321° |
| 2026-04-20 05:51 | 30.89265 | 114.83921 | 37106 ft | 434 kts | 321° |
| 2026-04-20 05:51 | 30.93935 | 114.79527 | 37109 ft | 434 kts | 321° |
| 2026-04-20 05:52 | 30.98632 | 114.75102 | 37109 ft | 434 kts | 321° |
| 2026-04-20 05:52 | 31.03295 | 114.70702 | 37109 ft | 434 kts | 321° |
| 2026-04-20 05:53 | 31.07964 | 114.66290 | 37109 ft | 434 kts | 321° |
| 2026-04-20 05:53 | 31.12672 | 114.61846 | 37109 ft | 434 kts | 321° |
| 2026-04-20 05:54 | 31.17332 | 114.57449 | 37110 ft | 434 kts | 321° |
| 2026-04-20 05:54 | 31.22013 | 114.53005 | 37110 ft | 434 kts | 321° |
| 2026-04-20 05:55 | 31.26731 | 114.48620 | 37105 ft | 434 kts | 326° |
| 2026-04-20 05:55 | 31.32053 | 114.45386 | 37106 ft | 434 kts | 341° |
| 2026-04-20 05:56 | 31.37909 | 114.43870 | 37106 ft | 434 kts | 356° |
| 2026-04-20 05:56 | 31.43945 | 114.44027 | 37108 ft | 434 kts | 5° |
| 2026-04-20 05:57 | 31.49956 | 114.44636 | 37109 ft | 434 kts | 5° |
| 2026-04-20 05:57 | 31.55940 | 114.45225 | 37109 ft | 434 kts | 5° |
| 2026-04-20 05:58 | 31.61935 | 114.45794 | 37109 ft | 434 kts | 5° |
| 2026-04-20 05:58 | 31.67915 | 114.46356 | 37109 ft | 434 kts | 5° |
| 2026-04-20 05:59 | 31.73926 | 114.46929 | 37109 ft | 434 kts | 5° |
| 2026-04-20 05:59 | 31.79916 | 114.47506 | 37110 ft | 434 kts | 5° |
| 2026-04-20 06:00 | 31.85916 | 114.48076 | 37109 ft | 434 kts | 5° |
| 2026-04-20 06:00 | 31.91892 | 114.48640 | 37109 ft | 434 kts | 5° |
| 2026-04-20 06:01 | 31.97888 | 114.49204 | 37109 ft | 434 kts | 5° |
| 2026-04-20 06:01 | 32.03929 | 114.49773 | 37109 ft | 434 kts | 5° |
| 2026-04-20 06:02 | 32.09897 | 114.50335 | 37109 ft | 434 kts | 5° |
| 2026-04-20 06:02 | 32.15897 | 114.50898 | 37109 ft | 434 kts | 5° |
| 2026-04-20 06:03 | 32.21921 | 114.51463 | 37109 ft | 434 kts | 5° |
| 2026-04-20 06:03 | 32.27901 | 114.52024 | 37109 ft | 434 kts | 5° |
| 2026-04-20 06:04 | 32.33928 | 114.52596 | 37109 ft | 434 kts | 5° |
| 2026-04-20 06:04 | 32.39920 | 114.53186 | 37109 ft | 434 kts | 5° |
| 2026-04-20 06:05 | 32.45943 | 114.53774 | 37109 ft | 434 kts | 5° |
| 2026-04-20 06:05 | 32.51913 | 114.54352 | 37109 ft | 434 kts | 5° |
| 2026-04-20 06:06 | 32.57922 | 114.54932 | 37109 ft | 434 kts | 5° |
| 2026-04-20 06:06 | 32.63929 | 114.55512 | 37109 ft | 434 kts | 5° |
| 2026-04-20 06:07 | 32.69893 | 114.56087 | 37109 ft | 434 kts | 5° |
| 2026-04-20 06:07 | 32.75896 | 114.56667 | 37109 ft | 434 kts | 5° |
| 2026-04-20 06:08 | 32.81900 | 114.57249 | 37109 ft | 434 kts | 5° |
| 2026-04-20 06:08 | 32.87919 | 114.57832 | 37109 ft | 434 kts | 5° |
| 2026-04-20 06:09 | 32.93914 | 114.58415 | 37109 ft | 434 kts | 5° |
| 2026-04-20 06:09 | 32.99912 | 114.58997 | 37109 ft | 434 kts | 5° |
| 2026-04-20 06:10 | 33.05892 | 114.59579 | 37109 ft | 434 kts | 5° |
| 2026-04-20 06:10 | 33.11913 | 114.60165 | 37109 ft | 434 kts | 5° |
| 2026-04-20 06:11 | 33.17882 | 114.60745 | 37109 ft | 434 kts | 5° |
| 2026-04-20 06:11 | 33.23896 | 114.61331 | 37109 ft | 434 kts | 5° |
| 2026-04-20 06:12 | 33.29886 | 114.61916 | 37109 ft | 434 kts | 5° |
| 2026-04-20 06:12 | 33.35883 | 114.62502 | 37109 ft | 434 kts | 5° |
| 2026-04-20 06:13 | 33.41854 | 114.63084 | 37109 ft | 434 kts | 5° |
| 2026-04-20 06:13 | 33.47845 | 114.63667 | 37109 ft | 434 kts | 5° |
| 2026-04-20 06:14 | 33.53839 | 114.64253 | 37109 ft | 434 kts | 5° |
| 2026-04-20 06:14 | 33.59885 | 114.64685 | 37108 ft | 434 kts | 358° |
| 2026-04-20 06:15 | 33.65802 | 114.63598 | 37111 ft | 434 kts | 343° |
| 2026-04-20 06:15 | 33.71311 | 114.60709 | 37110 ft | 434 kts | 328° |
| 2026-04-20 06:16 | 33.76156 | 114.56445 | 37108 ft | 434 kts | 325° |
| 2026-04-20 06:16 | 33.81421 | 114.53018 | 37108 ft | 434 kts | 340° |
| 2026-04-20 06:17 | 33.87262 | 114.51354 | 37107 ft | 434 kts | 355° |
| 2026-04-20 06:17 | 33.93332 | 114.51439 | 37109 ft | 434 kts | 5° |
| 2026-04-20 06:18 | 33.99341 | 114.52042 | 37109 ft | 434 kts | 5° |
| 2026-04-20 06:18 | 34.05441 | 114.52647 | 37109 ft | 434 kts | 5° |
| 2026-04-20 06:19 | 34.11500 | 114.53228 | 37109 ft | 434 kts | 5° |
| 2026-04-20 06:19 | 34.17588 | 114.53804 | 37109 ft | 434 kts | 5° |
| 2026-04-20 06:20 | 34.23645 | 114.54377 | 37109 ft | 434 kts | 5° |
| 2026-04-20 06:20 | 34.29635 | 114.54944 | 37109 ft | 434 kts | 5° |
| 2026-04-20 06:21 | 34.35609 | 114.55508 | 37109 ft | 434 kts | 5° |
| 2026-04-20 06:21 | 34.41620 | 114.56076 | 37109 ft | 434 kts | 5° |
| 2026-04-20 06:22 | 34.47625 | 114.56651 | 37109 ft | 434 kts | 5° |
| 2026-04-20 06:22 | 34.53611 | 114.57233 | 37109 ft | 434 kts | 5° |
| 2026-04-20 06:23 | 34.59634 | 114.57812 | 37109 ft | 434 kts | 5° |
| 2026-04-20 06:23 | 34.65655 | 114.58386 | 37110 ft | 434 kts | 5° |
| 2026-04-20 06:24 | 34.71751 | 114.58967 | 37109 ft | 434 kts | 5° |
| 2026-04-20 06:24 | 34.77820 | 114.59545 | 37109 ft | 434 kts | 5° |
| 2026-04-20 06:25 | 34.83840 | 114.60119 | 37109 ft | 434 kts | 5° |
| 2026-04-20 06:25 | 34.89932 | 114.60701 | 37109 ft | 434 kts | 5° |
| 2026-04-20 06:26 | 34.95964 | 114.61278 | 37109 ft | 434 kts | 5° |
| 2026-04-20 06:26 | 35.02002 | 114.61856 | 37109 ft | 434 kts | 5° |
| 2026-04-20 06:27 | 35.08080 | 114.62439 | 37109 ft | 434 kts | 5° |
| 2026-04-20 06:27 | 35.14083 | 114.63014 | 37109 ft | 434 kts | 5° |
| 2026-04-20 06:28 | 35.20073 | 114.63589 | 37109 ft | 434 kts | 5° |
| 2026-04-20 06:28 | 35.26094 | 114.64168 | 37109 ft | 434 kts | 5° |
| 2026-04-20 06:29 | 35.32084 | 114.64745 | 37109 ft | 434 kts | 5° |
| 2026-04-20 06:29 | 35.38118 | 114.65328 | 37109 ft | 434 kts | 5° |
| 2026-04-20 06:30 | 35.44097 | 114.65906 | 37109 ft | 434 kts | 5° |
| 2026-04-20 06:30 | 35.50108 | 114.66489 | 37109 ft | 434 kts | 5° |
| 2026-04-20 06:31 | 35.56103 | 114.67070 | 37109 ft | 434 kts | 5° |
| 2026-04-20 06:31 | 35.62085 | 114.67651 | 37109 ft | 434 kts | 5° |
| 2026-04-20 06:32 | 35.68093 | 114.68235 | 37109 ft | 434 kts | 5° |
| 2026-04-20 06:32 | 35.74095 | 114.68819 | 37109 ft | 434 kts | 5° |
| 2026-04-20 06:33 | 35.80114 | 114.69405 | 37109 ft | 434 kts | 5° |
| 2026-04-20 06:33 | 35.86094 | 114.69988 | 37109 ft | 434 kts | 5° |
| 2026-04-20 06:34 | 35.92101 | 114.70573 | 37109 ft | 434 kts | 5° |
| 2026-04-20 06:35 | 36.01112 | 114.71448 | 37109 ft | 434 kts | 5° |
| 2026-04-20 06:35 | 36.07124 | 114.72036 | 37109 ft | 434 kts | 5° |
| 2026-04-20 06:36 | 36.13103 | 114.72626 | 37109 ft | 434 kts | 5° |
| 2026-04-20 06:36 | 36.19105 | 114.73211 | 37109 ft | 434 kts | 5° |
| 2026-04-20 06:37 | 36.25111 | 114.73795 | 37109 ft | 434 kts | 5° |
| 2026-04-20 06:37 | 36.31080 | 114.74474 | 37109 ft | 434 kts | 8° |
| 2026-04-20 06:38 | 36.36991 | 114.75911 | 37109 ft | 434 kts | 15° |
| 2026-04-20 06:38 | 36.42719 | 114.78215 | 37109 ft | 434 kts | 21° |
| 2026-04-20 06:39 | 36.48249 | 114.81264 | 37109 ft | 434 kts | 25° |
| 2026-04-20 06:39 | 36.53732 | 114.84459 | 37109 ft | 434 kts | 25° |
| 2026-04-20 06:40 | 36.59206 | 114.87646 | 37109 ft | 434 kts | 25° |
| 2026-04-20 06:40 | 36.64681 | 114.90831 | 37109 ft | 434 kts | 25° |
| 2026-04-20 06:41 | 36.70171 | 114.94026 | 37109 ft | 434 kts | 25° |
| 2026-04-20 06:41 | 36.75658 | 114.97224 | 37109 ft | 434 kts | 25° |
| 2026-04-20 06:42 | 36.81168 | 115.00440 | 37109 ft | 434 kts | 25° |
| 2026-04-20 06:42 | 36.86664 | 115.03653 | 37109 ft | 434 kts | 25° |
| 2026-04-20 06:43 | 36.92150 | 115.06865 | 37109 ft | 434 kts | 25° |
| 2026-04-20 06:43 | 36.97699 | 115.10119 | 37109 ft | 434 kts | 25° |
| 2026-04-20 06:44 | 37.03199 | 115.13350 | 37109 ft | 434 kts | 25° |
| 2026-04-20 06:44 | 37.08657 | 115.16561 | 37109 ft | 434 kts | 25° |
| 2026-04-20 06:45 | 37.14182 | 115.19807 | 37109 ft | 434 kts | 25° |
| 2026-04-20 06:45 | 37.19648 | 115.23019 | 37109 ft | 434 kts | 25° |
| 2026-04-20 06:46 | 37.25145 | 115.26264 | 37109 ft | 434 kts | 25° |
| 2026-04-20 06:46 | 37.30664 | 115.29530 | 37109 ft | 434 kts | 25° |
| 2026-04-20 06:47 | 37.36158 | 115.32788 | 37109 ft | 434 kts | 25° |
| 2026-04-20 06:47 | 37.41619 | 115.36032 | 37109 ft | 434 kts | 25° |
| 2026-04-20 06:48 | 37.47044 | 115.39259 | 37109 ft | 435 kts | 25° |
| 2026-04-20 06:48 | 37.52483 | 115.42500 | 37109 ft | 434 kts | 25° |
| 2026-04-20 06:49 | 37.57955 | 115.45766 | 37109 ft | 434 kts | 25° |
| 2026-04-20 06:49 | 37.63371 | 115.49001 | 37109 ft | 434 kts | 25° |
| 2026-04-20 06:50 | 37.68838 | 115.52274 | 36829 ft | 434 kts | 25° |
| 2026-04-20 06:50 | 37.71552 | 115.53902 | 36578 ft | 431 kts | 25° |
| 2026-04-20 06:50 | 37.74266 | 115.55388 | 36328 ft | 428 kts | 20° |
| 2026-04-20 06:50 | 37.77076 | 115.56592 | 36076 ft | 425 kts | 15° |
| 2026-04-20 06:51 | 37.79940 | 115.57480 | 35824 ft | 424 kts | 11° |
| 2026-04-20 06:51 | 37.82829 | 115.58051 | 35575 ft | 424 kts | 6° |
| 2026-04-20 06:51 | 37.85783 | 115.58311 | 35323 ft | 424 kts | 1° |
| 2026-04-20 06:51 | 37.88710 | 115.58257 | 35074 ft | 425 kts | 357° |
| 2026-04-20 06:52 | 37.91647 | 115.58047 | 34828 ft | 425 kts | 356° |
| 2026-04-20 06:52 | 37.94587 | 115.57807 | 34584 ft | 426 kts | 356° |
| 2026-04-20 06:52 | 37.97543 | 115.57569 | 34233 ft | 427 kts | 356° |
| 2026-04-20 06:52 | 38.00469 | 115.57340 | 33837 ft | 427 kts | 356° |
| 2026-04-20 06:53 | 38.03450 | 115.57114 | 33434 ft | 428 kts | 356° |
| 2026-04-20 06:53 | 38.06393 | 115.56893 | 33037 ft | 428 kts | 356° |
| 2026-04-20 06:53 | 38.09351 | 115.56692 | 32639 ft | 429 kts | 357° |
| 2026-04-20 06:53 | 38.12322 | 115.56561 | 32239 ft | 430 kts | 357° |
| 2026-04-20 06:54 | 38.15323 | 115.56378 | 31837 ft | 430 kts | 356° |
| 2026-04-20 06:54 | 38.18267 | 115.56171 | 31442 ft | 431 kts | 356° |
| 2026-04-20 06:54 | 38.21246 | 115.55956 | 31044 ft | 432 kts | 356° |
| 2026-04-20 06:54 | 38.24252 | 115.55949 | 30641 ft | 433 kts | 4° |
| 2026-04-20 06:55 | 38.27215 | 115.56505 | 30236 ft | 434 kts | 13° |
| 2026-04-20 06:55 | 38.30087 | 115.57623 | 29760 ft | 434 kts | 21° |
| 2026-04-20 06:55 | 38.32861 | 115.59221 | 29285 ft | 435 kts | 25° |
| 2026-04-20 06:55 | 38.35551 | 115.60925 | 28809 ft | 431 kts | 26° |
| 2026-04-20 06:56 | 38.38203 | 115.62628 | 28335 ft | 428 kts | 26° |
| 2026-04-20 06:56 | 38.40868 | 115.64331 | 27854 ft | 424 kts | 26° |
| 2026-04-20 06:56 | 38.43479 | 115.65990 | 27381 ft | 421 kts | 27° |
| 2026-04-20 06:56 | 38.46074 | 115.67644 | 26906 ft | 418 kts | 26° |
| 2026-04-20 06:57 | 38.48694 | 115.69306 | 26425 ft | 415 kts | 26° |
| 2026-04-20 06:57 | 38.51222 | 115.70982 | 25952 ft | 412 kts | 28° |
| 2026-04-20 06:57 | 38.53743 | 115.72718 | 25473 ft | 409 kts | 28° |
| 2026-04-20 06:57 | 38.56197 | 115.74419 | 25002 ft | 406 kts | 28° |
| 2026-04-20 06:58 | 38.58661 | 115.76128 | 24527 ft | 403 kts | 28° |
| 2026-04-20 06:58 | 38.61110 | 115.77824 | 24051 ft | 400 kts | 28° |
| 2026-04-20 06:58 | 38.63566 | 115.79524 | 23570 ft | 397 kts | 28° |
| 2026-04-20 06:58 | 38.65955 | 115.81179 | 23099 ft | 394 kts | 28° |
| 2026-04-20 06:59 | 38.68363 | 115.82847 | 22621 ft | 391 kts | 28° |
| 2026-04-20 06:59 | 38.70752 | 115.84503 | 22143 ft | 388 kts | 28° |
| 2026-04-20 06:59 | 38.73097 | 115.86129 | 21671 ft | 385 kts | 28° |
| 2026-04-20 06:59 | 38.75447 | 115.87759 | 21194 ft | 383 kts | 28° |
| 2026-04-20 07:00 | 38.77755 | 115.89362 | 20722 ft | 380 kts | 28° |
| 2026-04-20 07:00 | 38.80065 | 115.90968 | 20246 ft | 377 kts | 28° |
| 2026-04-20 07:00 | 38.82366 | 115.92568 | 19767 ft | 374 kts | 28° |
| 2026-04-20 07:00 | 38.84627 | 115.94141 | 19295 ft | 372 kts | 28° |
| 2026-04-20 07:01 | 38.86904 | 115.95727 | 18815 ft | 369 kts | 28° |
| 2026-04-20 07:01 | 38.89153 | 115.97294 | 18339 ft | 367 kts | 28° |
| 2026-04-20 07:01 | 38.91367 | 115.98839 | 17867 ft | 365 kts | 28° |
| 2026-04-20 07:01 | 38.93592 | 116.00391 | 17389 ft | 362 kts | 28° |
| 2026-04-20 07:02 | 38.95817 | 116.01945 | 16909 ft | 360 kts | 28° |
| 2026-04-20 07:02 | 38.97982 | 116.03458 | 16438 ft | 358 kts | 28° |
| 2026-04-20 07:02 | 39.00184 | 116.04998 | 15956 ft | 356 kts | 28° |
| 2026-04-20 07:02 | 39.02321 | 116.06494 | 15486 ft | 353 kts | 28° |
| 2026-04-20 07:03 | 39.04489 | 116.08012 | 15006 ft | 351 kts | 28° |
| 2026-04-20 07:03 | 39.06620 | 116.09506 | 14531 ft | 349 kts | 28° |
| 2026-04-20 07:03 | 39.08745 | 116.10996 | 14055 ft | 347 kts | 28° |
| 2026-04-20 07:03 | 39.10854 | 116.12476 | 13580 ft | 346 kts | 28° |
| 2026-04-20 07:04 | 39.12970 | 116.13953 | 13101 ft | 344 kts | 28° |
| 2026-04-20 07:04 | 39.15039 | 116.15398 | 12631 ft | 342 kts | 28° |
| 2026-04-20 07:04 | 39.17135 | 116.16866 | 12151 ft | 340 kts | 28° |
| 2026-04-20 07:04 | 39.19200 | 116.18315 | 11676 ft | 338 kts | 28° |
| 2026-04-20 07:05 | 39.21254 | 116.19759 | 11201 ft | 337 kts | 28° |
| 2026-04-20 07:05 | 39.23273 | 116.21181 | 10949 ft | 329 kts | 28° |
| 2026-04-20 07:05 | 39.25264 | 116.22584 | 10797 ft | 328 kts | 28° |
| 2026-04-20 07:05 | 39.27264 | 116.23994 | 10567 ft | 325 kts | 28° |
| 2026-04-20 07:06 | 39.29229 | 116.25382 | 10338 ft | 316 kts | 28° |
| 2026-04-20 07:06 | 39.31103 | 116.26705 | 10113 ft | 308 kts | 28° |
| 2026-04-20 07:06 | 39.32980 | 116.28031 | 9883 ft | 299 kts | 28° |
| 2026-04-20 07:06 | 39.34767 | 116.29295 | 9657 ft | 292 kts | 28° |
| 2026-04-20 07:07 | 39.36547 | 116.30554 | 9427 ft | 285 kts | 28° |
| 2026-04-20 07:07 | 39.38274 | 116.31776 | 9198 ft | 284 kts | 28° |
| 2026-04-20 07:07 | 39.39984 | 116.32988 | 8897 ft | 283 kts | 28° |
| 2026-04-20 07:07 | 39.41689 | 116.34196 | 8599 ft | 282 kts | 28° |
| 2026-04-20 07:08 | 39.43396 | 116.35407 | 8300 ft | 280 kts | 28° |
| 2026-04-20 07:08 | 39.45103 | 116.36618 | 7999 ft | 279 kts | 28° |
| 2026-04-20 07:08 | 39.46777 | 116.37807 | 7703 ft | 278 kts | 28° |
| 2026-04-20 07:08 | 39.48480 | 116.39017 | 7400 ft | 277 kts | 28° |
| 2026-04-20 07:09 | 39.50157 | 116.40209 | 7101 ft | 276 kts | 28° |
| 2026-04-20 07:09 | 39.51829 | 116.41399 | 6850 ft | 274 kts | 28° |
| 2026-04-20 07:09 | 39.53488 | 116.42581 | 6813 ft | 274 kts | 28° |
| 2026-04-20 07:09 | 39.55157 | 116.43771 | 6808 ft | 275 kts | 28° |
| 2026-04-20 07:10 | 39.56838 | 116.44968 | 6736 ft | 276 kts | 28° |
| 2026-04-20 07:10 | 39.58503 | 116.46156 | 6535 ft | 273 kts | 28° |
| 2026-04-20 07:10 | 39.60178 | 116.47350 | 6334 ft | 273 kts | 28° |
| 2026-04-20 07:10 | 39.61832 | 116.48531 | 6134 ft | 272 kts | 28° |
| 2026-04-20 07:11 | 39.63485 | 116.49712 | 5934 ft | 271 kts | 28° |
| 2026-04-20 07:11 | 39.65137 | 116.50891 | 5733 ft | 270 kts | 28° |
| 2026-04-20 07:11 | 39.66765 | 116.52055 | 5535 ft | 269 kts | 28° |
| 2026-04-20 07:11 | 39.68399 | 116.53224 | 5290 ft | 269 kts | 28° |
| 2026-04-20 07:12 | 39.70032 | 116.54393 | 5012 ft | 264 kts | 28° |
| 2026-04-20 07:12 | 39.71606 | 116.55520 | 4739 ft | 260 kts | 28° |
| 2026-04-20 07:12 | 39.73190 | 116.56654 | 4460 ft | 256 kts | 28° |
| 2026-04-20 07:12 | 39.74727 | 116.57755 | 4186 ft | 252 kts | 28° |
| 2026-04-20 07:13 | 39.76257 | 116.58852 | 3908 ft | 249 kts | 28° |
| 2026-04-20 07:13 | 39.77766 | 116.59935 | 3632 ft | 246 kts | 28° |
| 2026-04-20 07:13 | 39.79238 | 116.60992 | 3359 ft | 243 kts | 28° |
| 2026-04-20 07:13 | 39.80725 | 116.62060 | 3079 ft | 241 kts | 28° |
| 2026-04-20 07:14 | 39.82202 | 116.62992 | 2909 ft | 233 kts | 16° |
| 2026-04-20 07:14 | 39.83752 | 116.63323 | 2900 ft | 217 kts | 0° |
| 2026-04-20 07:14 | 39.85198 | 116.63237 | 2948 ft | 198 kts | 354° |
| 2026-04-20 07:14 | 39.86487 | 116.63041 | 2933 ft | 180 kts | 352° |
| 2026-04-20 07:15 | 39.87677 | 116.62838 | 2908 ft | 160 kts | 352° |
| 2026-04-20 07:15 | 39.88710 | 116.62663 | 2859 ft | 140 kts | 352° |
| 2026-04-20 07:15 | 39.89746 | 116.62492 | 2965 ft | 167 kts | 352° |
| 2026-04-20 07:15 | 39.91021 | 116.62289 | 2977 ft | 189 kts | 352° |
| 2026-04-20 07:16 | 39.92296 | 116.62090 | 2717 ft | 181 kts | 353° |
| 2026-04-20 07:16 | 39.93517 | 116.61900 | 2471 ft | 171 kts | 353° |
| 2026-04-20 07:16 | 39.94665 | 116.61721 | 2241 ft | 161 kts | 353° |
| 2026-04-20 07:16 | 39.95746 | 116.61552 | 2025 ft | 150 kts | 353° |
| 2026-04-20 07:17 | 39.96746 | 116.61396 | 1819 ft | 141 kts | 353° |
| 2026-04-20 07:17 | 39.97741 | 116.61241 | 1658 ft | 146 kts | 353° |
| 2026-04-20 07:17 | 39.98756 | 116.61081 | 1484 ft | 151 kts | 353° |
| 2026-04-20 07:17 | 39.99804 | 116.60916 | 1284 ft | 154 kts | 353° |
| 2026-04-20 07:18 | 40.00880 | 116.60747 | 1070 ft | 155 kts | 352° |
| 2026-04-20 07:18 | 40.01943 | 116.60581 | 841 ft | 148 kts | 353° |
| 2026-04-20 07:18 | 40.02924 | 116.60427 | 636 ft | 138 kts | 352° |
| 2026-04-20 07:18 | 40.03865 | 116.60279 | 475 ft | 140 kts | 352° |
| 2026-04-20 07:19 | 40.04892 | 116.60117 | 313 ft | 153 kts | 352° |
| 2026-04-20 07:19 | 40.05927 | 116.59955 | 166 ft | 143 kts | 353° |
| 2026-04-20 07:19 | 40.06823 | 116.59808 | 122 ft | 109 kts | 352° |
| 2026-04-20 07:19 | 40.07405 | 116.59714 | 122 ft | 59 kts | 353° |
| 2026-04-20 07:20 | 40.07645 | 116.59728 | 122 ft | 10 kts | 13° |
| 2026-04-20 07:20 | 40.07653 | 116.59731 | 122 ft | 0 kts | 15° |
| 2026-04-20 07:20 | 40.07654 | 116.59731 | 122 ft | 0 kts | 15° |
| 2026-04-20 07:20 | 40.07661 | 116.59734 | 122 ft | 1 kts | 15° |
| 2026-04-20 07:21 | 40.07676 | 116.59740 | 122 ft | 2 kts | 18° |
| 2026-04-20 07:21 | 40.07697 | 116.59750 | 122 ft | 3 kts | 18° |
| 2026-04-20 07:21 | 40.07723 | 116.59762 | 122 ft | 4 kts | 19° |
| 2026-04-20 07:21 | 40.07756 | 116.59782 | 121 ft | 5 kts | 27° |
| 2026-04-20 07:22 | 40.07791 | 116.59809 | 122 ft | 6 kts | 39° |
| 2026-04-20 07:22 | 40.07803 | 116.59866 | 122 ft | 7 kts | 111° |
| 2026-04-20 07:22 | 40.07760 | 116.59905 | 122 ft | 8 kts | 167° |
| 2026-04-20 07:22 | 40.07701 | 116.59917 | 122 ft | 9 kts | 174° |
| 2026-04-20 07:23 | 40.07637 | 116.59937 | 122 ft | 9 kts | 143° |
| 2026-04-20 07:23 | 40.07624 | 116.60020 | 121 ft | 10 kts | 81° |
| 2026-04-20 07:23 | 40.07623 | 116.60117 | 122 ft | 10 kts | 113° |
| 2026-04-20 07:23 | 40.07621 | 116.60204 | 121 ft | 10 kts | 35° |
| 2026-04-20 07:24 | 40.07672 | 116.60243 | 122 ft | 0 kts | 26° |
| 2026-04-20 07:24 | 40.07677 | 116.60247 | 121 ft | 1 kts | 26° |
| 2026-04-20 07:24 | 40.07681 | 116.60249 | 122 ft | 0 kts | 26° |